Time;durP1;ratioP1;P1;durP2;ratioP2;P2;SDS_P1;SDS_P2;PMS_P1;PMS_P2;Temp;Humidity;BMP_temperature;BMP_pressure;BME280_temperature;BME280_humidity;BME280_pressure;Samples;Min_cycle;Max_cycle;Signal;HPM_P1;HPM_P2
2022/06/10 00:00:59;;;;;;;17.07;10.60;;;;;;;;;;4344259;79;28527;-77
2022/06/10 00:07:00;;;;;;;15.70;9.55;;;;;;;;;;4358212;80;28614;-77
2022/06/10 00:13:02;;;;;;;12.50;9.58;;;;;;;;;;4487799;78;28616;-75
2022/06/10 00:19:03;;;;;;;16.80;9.73;;;;;;;;;;4415878;79;28492;-75
2022/06/10 00:25:05;;;;;;;14.50;10.08;;;;;;;;;;4361777;80;28502;-75
2022/06/10 00:31:06;;;;;;;14.03;9.73;;;;;;;;;;4360157;80;28493;-75
2022/06/10 00:37:08;;;;;;;14.85;9.90;;;;;;;;;;4455195;79;28574;-75
2022/06/10 00:43:15;;;;;;;14.43;10.32;;;;;;;;;;4410931;79;28512;-75
2022/06/10 00:49:17;;;;;;;16.82;10.68;;;;;;;;;;4434822;79;28542;-76
2022/06/10 00:55:28;;;;;;;18.77;10.65;;;;;;;;;;4418817;79;28557;-75
2022/06/10 01:01:22;;;;;;;16.17;10.80;;;;;;;;;;4450162;78;28511;-75
2022/06/10 01:07:33;;;;;;;16.62;10.90;;;;;;;;;;4425202;79;28499;-76
2022/06/10 01:13:47;;;;;;;17.70;10.78;;;;;;;;;;4423070;79;28524;-75
2022/06/10 01:20:08;;;;;;;14.07;10.10;;;;;;;;;;4416397;79;28591;-76
2022/06/10 01:26:15;;;;;;;15.38;10.45;;;;;;;;;;4420603;79;28456;-75
2022/06/10 01:32:23;;;;;;;16.35;10.70;;;;;;;;;;4389113;79;28559;-76
2022/06/10 01:38:28;;;;;;;20.57;12.90;;;;;;;;;;4430224;79;28528;-76
2022/06/10 01:44:33;;;;;;;19.70;11.93;;;;;;;;;;4455730;79;28542;-76
2022/06/10 01:50:56;;;;;;;18.27;10.45;;;;;;;;;;4427795;79;28551;-75
2022/06/10 01:57:00;;;;;;;16.35;9.93;;;;;;;;;;4427950;79;28564;-75
2022/06/10 02:03:05;;;;;;;17.52;10.43;;;;;;;;;;4410288;79;28459;-75
2022/06/10 02:09:10;;;;;;;19.15;11.12;;;;;;;;;;4409622;79;28500;-75
2022/06/10 02:15:21;;;;;;;21.42;13.05;;;;;;;;;;4416168;79;28503;-76
2022/06/10 02:21:31;;;;;;;23.40;13.90;;;;;;;;;;4434816;79;28525;-74
2022/06/10 02:27:39;;;;;;;21.95;13.85;;;;;;;;;;4418113;79;28581;-74
2022/06/10 02:33:40;;;;;;;21.50;14.05;;;;;;;;;;4421453;79;28561;-76
2022/06/10 02:39:47;;;;;;;20.43;13.40;;;;;;;;;;4430145;79;28514;-75
2022/06/10 02:46:04;;;;;;;24.27;14.30;;;;;;;;;;4449191;78;28554;-78
2022/06/10 02:52:10;;;;;;;23.70;14.35;;;;;;;;;;4409292;80;28529;-76
2022/06/10 03:04:53;;;;;;;26.02;15.32;;;;;;;;;;4464165;78;28517;-76
2022/06/10 03:11:07;;;;;;;28.38;16.60;;;;;;;;;;4373467;80;28535;-74
2022/06/10 03:17:24;;;;;;;31.02;18.10;;;;;;;;;;4375495;80;28573;-75
2022/06/10 03:23:34;;;;;;;28.67;17.30;;;;;;;;;;4450830;79;28608;-75
2022/06/10 03:29:57;;;;;;;29.10;17.45;;;;;;;;;;4446578;79;28454;-76
2022/06/10 03:36:13;;;;;;;27.15;16.87;;;;;;;;;;4378361;80;28584;-76
2022/06/10 03:42:17;;;;;;;25.35;16.02;;;;;;;;;;4356011;80;28508;-76
2022/06/10 03:48:21;;;;;;;25.17;16.93;;;;;;;;;;4351158;80;28537;-77
2022/06/10 03:54:22;;;;;;;25.92;16.48;;;;;;;;;;4357324;80;28509;-75
2022/06/10 04:00:26;;;;;;;24.05;16.07;;;;;;;;;;4355909;80;28567;-74
2022/06/10 04:06:27;;;;;;;24.95;16.45;;;;;;;;;;4371009;80;28493;-75
2022/06/10 04:12:29;;;;;;;22.05;14.35;;;;;;;;;;4357856;80;28538;-75
2022/06/10 04:18:30;;;;;;;20.97;15.23;;;;;;;;;;4357960;80;28434;-75
2022/06/10 04:24:31;;;;;;;19.77;13.43;;;;;;;;;;4480052;77;28557;-74
2022/06/10 04:30:36;;;;;;;17.35;13.03;;;;;;;;;;4451405;78;28489;-75
2022/06/10 04:36:37;;;;;;;20.62;13.88;;;;;;;;;;4444840;78;28532;-75
2022/06/10 04:42:39;;;;;;;23.85;15.48;;;;;;;;;;4374131;80;28529;-76
2022/06/10 04:48:40;;;;;;;22.82;15.28;;;;;;;;;;4375804;79;28545;-75
2022/06/10 04:54:41;;;;;;;22.85;15.10;;;;;;;;;;4452683;78;28504;-76
2022/06/10 05:00:47;;;;;;;21.75;15.43;;;;;;;;;;4446834;78;28541;-76
2022/06/10 05:06:48;;;;;;;;;;;;;;;;;;4369793;80;28575;-77
2022/06/10 05:12:50;;;;;;;21.85;14.00;;;;;;;;;;4352241;80;20587;-78
2022/06/10 05:18:51;;;;;;;21.10;14.60;;;;;;;;;;4453216;78;28504;-75
2022/06/10 05:24:52;;;;;;;20.08;13.88;;;;;;;;;;4362009;79;28527;-77
2022/06/10 05:30:53;;;;;;;21.95;14.28;;;;;;;;;;4352888;81;28516;-77
2022/06/10 05:36:55;;;;;;;20.88;14.50;;;;;;;;;;4348857;80;28533;-74
2022/06/10 05:42:56;;;;;;;25.95;16.60;;;;;;;;;;4404092;79;28480;-73
2022/06/10 05:48:57;;;;;;;22.60;15.18;;;;;;;;;;4423894;80;29136;-73
2022/06/10 05:55:01;;;;;;;22.50;14.33;;;;;;;;;;4378457;80;28513;-74
2022/06/10 06:01:02;;;;;;;22.93;15.30;;;;;;;;;;4351779;81;28613;-74
2022/06/10 06:07:04;;;;;;;23.67;16.25;;;;;;;;;;4432902;79;28499;-73
2022/06/10 06:13:06;;;;;;;23.45;16.25;;;;;;;;;;4442537;78;28538;-74
2022/06/10 06:19:07;;;;;;;26.23;16.10;;;;;;;;;;4448444;78;28482;-72
2022/06/10 06:25:13;;;;;;;24.87;15.93;;;;;;;;;;4372773;80;28536;-73
2022/06/10 06:31:15;;;;;;;26.65;17.57;;;;;;;;;;4416894;79;28504;-72
2022/06/10 06:37:18;;;;;;;26.23;17.32;;;;;;;;;;4449478;79;28529;-74
2022/06/10 06:43:19;;;;;;;27.50;17.67;;;;;;;;;;4448494;79;28565;-74
2022/06/10 06:49:25;;;;;;;29.27;17.23;;;;;;;;;;4428838;78;28561;-75
2022/06/10 06:55:26;;;;;;;29.63;17.62;;;;;;;;;;4366439;80;28514;-75
2022/06/10 07:01:27;;;;;;;25.88;16.93;;;;;;;;;;4355835;80;28544;-80
2022/06/10 07:07:29;;;;;;;28.05;17.12;;;;;;;;;;4376728;80;28477;-81
2022/06/10 07:13:31;;;;;;;29.87;17.70;;;;;;;;;;4355397;81;28536;-80
2022/06/10 07:19:32;;;;;;;30.48;18.45;;;;;;;;;;4431417;79;28487;-81
2022/06/10 07:25:34;;;;;;;35.00;19.25;;;;;;;;;;4445856;79;28500;-81
2022/06/10 07:31:36;;;;;;;33.28;19.07;;;;;;;;;;4415108;79;28457;-82
2022/06/10 07:37:38;;;;;;;30.85;19.35;;;;;;;;;;4432831;80;28457;-79
2022/06/10 07:43:41;;;;;;;33.02;20.08;;;;;;;;;;4393177;80;28550;-81
2022/06/10 07:49:43;;;;;;;32.13;20.20;;;;;;;;;;4337421;81;28547;-80
2022/06/10 07:55:45;;;;;;;29.75;18.92;;;;;;;;;;4388204;81;28496;-79
2022/06/10 08:01:46;;;;;;;29.32;19.50;;;;;;;;;;4400673;80;28529;-81
2022/06/10 08:07:48;;;;;;;31.57;19.55;;;;;;;;;;4378111;81;28489;-79
2022/06/10 08:13:49;;;;;;;28.98;19.67;;;;;;;;;;4384673;80;28545;-80
2022/06/10 08:19:50;;;;;;;26.50;18.07;;;;;;;;;;4385627;80;28473;-80
2022/06/10 08:25:52;;;;;;;27.82;18.30;;;;;;;;;;4396373;80;28486;-78
2022/06/10 08:31:53;;;;;;;25.75;18.32;;;;;;;;;;4392058;80;28501;-79
2022/06/10 08:37:55;;;;;;;27.82;19.82;;;;;;;;;;4357272;80;28549;-81
2022/06/10 08:44:04;;;;;;;36.53;23.73;;;;;;;;;;4391123;80;28511;-80
2022/06/10 08:50:23;;;;;;;36.13;24.23;;;;;;;;;;4373473;80;28497;-81
2022/06/10 08:56:32;;;;;;;29.32;18.50;;;;;;;;;;4360790;80;28487;-80
2022/06/10 09:02:39;;;;;;;24.05;16.93;;;;;;;;;;4386709;80;28478;-80
2022/06/10 09:08:44;;;;;;;25.25;16.77;;;;;;;;;;4437406;78;28561;-80
2022/06/10 09:14:45;;;;;;;22.62;16.27;;;;;;;;;;4412306;79;28493;-83
2022/06/10 09:20:52;;;;;;;23.22;16.00;;;;;;;;;;4399951;80;28474;-81
2022/06/10 09:27:06;;;;;;;20.55;15.20;;;;;;;;;;4420392;79;28470;-81
2022/06/10 09:33:40;;;;;;;20.02;14.25;;;;;;;;;;4447951;78;28508;-83
2022/06/10 09:46:20;;;;;;;20.45;14.10;;;;;;;;;;4351634;80;28572;-82
2022/06/10 09:52:34;;;;;;;17.57;13.45;;;;;;;;;;4397628;80;28544;-81
2022/06/10 09:58:59;;;;;;;14.07;11.50;;;;;;;;;;4392265;80;28545;-80
2022/06/10 10:05:21;;;;;;;16.42;12.47;;;;;;;;;;4348412;80;28575;-79
2022/06/10 10:11:29;;;;;;;11.50;8.75;;;;;;;;;;4458162;78;28505;-79
2022/06/10 10:17:40;;;;;;;14.23;11.38;;;;;;;;;;4442209;78;28536;-77
2022/06/10 10:23:50;;;;;;;13.30;9.95;;;;;;;;;;4474639;78;28493;-77
2022/06/10 10:29:58;;;;;;;12.15;8.63;;;;;;;;;;4459847;78;28549;-78
2022/06/10 10:35:59;;;;;;;13.80;8.58;;;;;;;;;;4452857;78;28564;-80
2022/06/10 10:42:19;;;;;;;10.03;8.20;;;;;;;;;;4404269;79;28524;-79
2022/06/10 10:48:25;;;;;;;10.72;8.63;;;;;;;;;;4395158;80;28512;-81
2022/06/10 10:54:33;;;;;;;10.30;9.25;;;;;;;;;;4399812;80;28481;-81
2022/06/10 11:00:38;;;;;;;11.88;9.05;;;;;;;;;;4268478;82;28527;-80
2022/06/10 11:06:39;;;;;;;11.97;9.00;;;;;;;;;;4387306;80;28501;-83
2022/06/10 11:12:40;;;;;;;11.68;8.53;;;;;;;;;;4380355;80;28533;-81
2022/06/10 11:18:41;;;;;;;10.93;8.53;;;;;;;;;;4398534;80;28457;-83
2022/06/10 11:24:46;;;;;;;10.70;8.23;;;;;;;;;;4392511;80;28477;-83
2022/06/10 11:30:51;;;;;;;8.98;8.08;;;;;;;;;;4386353;80;28464;-81
2022/06/10 11:36:54;;;;;;;9.33;8.18;;;;;;;;;;4384298;80;28493;-82
2022/06/10 11:43:02;;;;;;;10.90;9.80;;;;;;;;;;4383578;80;28523;-80
2022/06/10 11:49:22;;;;;;;10.70;9.10;;;;;;;;;;4389860;80;28545;-86
2022/06/10 11:55:30;;;;;;;10.00;8.68;;;;;;;;;;4380867;80;28541;-78
2022/06/10 12:01:36;;;;;;;9.80;8.43;;;;;;;;;;4385305;80;28543;-78
2022/06/10 12:07:50;;;;;;;11.13;9.00;;;;;;;;;;4374864;80;28506;-78
2022/06/10 12:14:14;;;;;;;13.65;9.28;;;;;;;;;;4400726;80;51165;-78
2022/06/10 12:20:25;;;;;;;10.28;8.80;;;;;;;;;;4376371;80;28568;-78
2022/06/10 12:26:39;;;;;;;11.48;9.58;;;;;;;;;;4370970;80;28530;-77
2022/06/10 12:32:53;;;;;;;14.18;10.10;;;;;;;;;;4387288;80;28513;-79
2022/06/10 12:38:57;;;;;;;11.60;9.28;;;;;;;;;;4383821;80;28528;-78
2022/06/10 12:45:01;;;;;;;13.85;9.45;;;;;;;;;;4388848;80;28541;-81
2022/06/10 12:51:14;;;;;;;11.75;10.38;;;;;;;;;;4357973;80;28496;-79
2022/06/10 12:57:40;;;;;;;11.80;10.15;;;;;;;;;;4370245;80;28464;-78
2022/06/10 13:03:42;;;;;;;12.80;10.48;;;;;;;;;;4452906;79;28446;-78
2022/06/10 13:09:43;;;;;;;11.25;9.73;;;;;;;;;;4453899;79;28544;-79
2022/06/10 13:15:45;;;;;;;13.62;10.48;;;;;;;;;;4434185;79;28508;-78
2022/06/10 13:21:46;;;;;;;12.03;9.75;;;;;;;;;;4456829;79;28573;-75
2022/06/10 13:27:48;;;;;;;9.80;8.68;;;;;;;;;;4377806;80;28514;-76
2022/06/10 13:34:05;;;;;;;11.90;9.20;;;;;;;;;;4366454;80;28540;-79
2022/06/10 13:40:10;;;;;;;12.82;10.78;;;;;;;;;;4371202;80;28500;-81
2022/06/10 13:46:15;;;;;;;15.03;11.22;;;;;;;;;;4356753;80;28556;-83
2022/06/10 13:52:24;;;;;;;16.07;12.65;;;;;;;;;;4403538;80;28548;-85
2022/06/10 13:58:27;;;;;;;18.45;13.08;;;;;;;;;;4359796;80;28543;-83
2022/06/10 14:04:32;;;;;;;17.98;13.45;;;;;;;;;;4365895;80;28541;-82
2022/06/10 14:10:47;;;;;;;13.85;11.48;;;;;;;;;;4371788;80;28599;-81
2022/06/10 14:17:01;;;;;;;14.80;11.57;;;;;;;;;;4468403;79;28587;-82
2022/06/10 14:23:10;;;;;;;16.05;12.90;;;;;;;;;;4362312;80;28542;-83
2022/06/10 14:29:18;;;;;;;15.65;11.63;;;;;;;;;;4411221;80;28497;-83
2022/06/10 14:35:40;;;;;;;13.70;11.03;;;;;;;;;;4378754;80;28537;-84
2022/06/10 14:42:03;;;;;;;15.15;11.80;;;;;;;;;;4381250;80;28509;-83
2022/06/10 14:48:11;;;;;;;11.95;10.32;;;;;;;;;;4377332;80;28549;-84
2022/06/10 14:54:20;;;;;;;13.30;10.18;;;;;;;;;;4391986;80;28478;-87
2022/06/10 15:00:24;;;;;;;11.22;9.38;;;;;;;;;;4397564;80;28528;-83
2022/06/10 15:06:31;;;;;;;11.45;9.23;;;;;;;;;;4365619;80;28539;-81
2022/06/10 15:12:33;;;;;;;10.50;9.08;;;;;;;;;;4374059;80;28462;-80
2022/06/10 15:18:34;;;;;;;11.65;9.38;;;;;;;;;;4384710;80;28507;-81
2022/06/10 15:24:35;;;;;;;11.10;9.53;;;;;;;;;;4411880;80;28449;-85
2022/06/10 15:30:40;;;;;;;10.05;8.98;;;;;;;;;;4390429;80;28501;-84
2022/06/10 15:43:05;;;;;;;10.78;9.03;;;;;;;;;;4381690;80;28504;-85
2022/06/10 15:49:06;;;;;;;10.98;9.33;;;;;;;;;;4392463;80;28682;-84
2022/06/10 16:01:49;;;;;;;10.80;9.25;;;;;;;;;;4378064;80;28541;-86
2022/06/10 16:07:50;;;;;;;8.95;8.05;;;;;;;;;;4381043;80;28636;-86
2022/06/10 16:13:52;;;;;;;9.70;8.70;;;;;;;;;;4392022;80;28505;-84
2022/06/10 16:19:54;;;;;;;9.78;8.88;;;;;;;;;;4385261;80;28525;-82
2022/06/10 16:25:59;;;;;;;10.05;8.60;;;;;;;;;;4390125;80;28473;-83
2022/06/10 16:32:03;;;;;;;9.85;8.85;;;;;;;;;;4387659;80;28564;-83
2022/06/10 16:38:20;;;;;;;10.00;9.00;;;;;;;;;;4384170;80;28496;-84
2022/06/10 16:44:29;;;;;;;9.80;8.80;;;;;;;;;;4382782;80;28536;-82
2022/06/10 16:50:33;;;;;;;9.63;8.73;;;;;;;;;;4349011;80;28575;-83
2022/06/10 16:56:39;;;;;;;10.48;8.80;;;;;;;;;;4351828;80;28521;-82
2022/06/10 17:02:43;;;;;;;11.43;9.05;;;;;;;;;;4366553;80;28564;-83
2022/06/10 17:08:44;;;;;;;13.28;9.78;;;;;;;;;;4413525;79;28516;-84
2022/06/10 17:14:45;;;;;;;12.53;9.00;;;;;;;;;;4447384;79;28477;-83
2022/06/10 17:20:50;;;;;;;10.20;9.10;;;;;;;;;;4454912;79;28504;-81
2022/06/10 17:26:53;;;;;;;9.58;8.55;;;;;;;;;;4466919;78;28557;-83
2022/06/10 17:32:56;;;;;;;8.68;7.78;;;;;;;;;;4431057;79;28515;-84
2022/06/10 17:39:00;;;;;;;7.87;7.00;;;;;;;;;;4385374;79;28557;-84
2022/06/10 17:45:03;;;;;;;11.35;6.78;;;;;;;;;;4379991;80;28561;-84
2022/06/10 17:51:04;;;;;;;6.92;6.08;;;;;;;;;;4390447;80;28508;-84
2022/06/10 17:57:18;;;;;;;7.62;6.85;;;;;;;;;;4364965;80;28559;-82
2022/06/10 18:03:20;;;;;;;9.60;7.67;;;;;;;;;;4356268;80;28554;-82
2022/06/10 18:09:21;;;;;;;8.78;7.87;;;;;;;;;;4348127;81;28527;-84
2022/06/10 18:15:22;;;;;;;8.50;7.65;;;;;;;;;;4356914;81;28469;-87
2022/06/10 18:21:25;;;;;;;8.63;7.70;;;;;;;;;;4363969;80;28507;-86
2022/06/10 18:27:33;;;;;;;9.73;7.83;;;;;;;;;;4350112;81;28509;-88
2022/06/10 18:33:39;;;;;;;10.60;7.45;;;;;;;;;;4365776;81;28507;-86
2022/06/10 18:39:40;;;;;;;10.35;8.78;;;;;;;;;;4364814;81;28568;-86
2022/06/10 18:45:41;;;;;;;8.00;7.08;;;;;;;;;;4369492;80;28504;-88
2022/06/10 18:51:46;;;;;;;9.98;7.92;;;;;;;;;;4392315;80;28586;-87
2022/06/10 18:57:50;;;;;;;8.63;7.62;;;;;;;;;;4375548;80;28563;-85
2022/06/10 19:03:52;;;;;;;9.65;7.50;;;;;;;;;;4363139;80;28521;-85
2022/06/10 19:09:53;;;;;;;7.97;7.17;;;;;;;;;;4371562;80;28511;-82
2022/06/10 19:16:01;;;;;;;8.68;7.47;;;;;;;;;;4357244;80;28456;-81
2022/06/10 19:28:18;;;;;;;9.40;8.05;;;;;;;;;;4585652;74;63283;-80
2022/06/10 19:34:26;;;;;;;9.00;8.10;;;;;;;;;;4481977;77;28561;-85
2022/06/10 19:40:34;;;;;;;8.80;7.90;;;;;;;;;;4491009;77;28539;-83
2022/06/10 19:46:37;;;;;;;9.35;8.00;;;;;;;;;;4524960;77;28582;-85
2022/06/10 19:52:41;;;;;;;9.63;8.18;;;;;;;;;;4516029;77;28550;-81
2022/06/10 19:58:43;;;;;;;12.55;8.38;;;;;;;;;;4482846;77;28564;-82
2022/06/10 20:04:45;;;;;;;10.60;7.97;;;;;;;;;;4523643;77;28564;-84
2022/06/10 20:10:48;;;;;;;8.95;7.72;;;;;;;;;;4487839;77;28506;-84
2022/06/10 20:16:50;;;;;;;11.22;7.92;;;;;;;;;;4510424;77;28580;-85
2022/06/10 20:22:53;;;;;;;8.93;7.58;;;;;;;;;;4473955;77;28623;-86
2022/06/10 20:28:55;;;;;;;9.48;7.28;;;;;;;;;;4529010;77;28571;-86
2022/06/10 20:35:00;;;;;;;8.90;7.35;;;;;;;;;;4559907;76;28491;-87
2022/06/10 20:41:03;;;;;;;9.10;7.80;;;;;;;;;;4537460;77;28501;-91
2022/06/10 20:47:08;;;;;;;10.55;7.12;;;;;;;;;;4513271;77;28465;-89
2022/06/10 20:53:11;;;;;;;11.50;8.08;;;;;;;;;;4513528;77;28510;-88
2022/06/10 20:59:12;;;;;;;11.33;7.92;;;;;;;;;;4513972;77;28497;-89
2022/06/10 21:11:39;;;;;;;9.05;7.75;;;;;;;;;;4501252;77;28483;-90
2022/06/10 21:17:44;;;;;;;9.95;8.70;;;;;;;;;;4522812;77;28538;-89
2022/06/10 21:23:48;;;;;;;15.05;8.75;;;;;;;;;;4520245;77;28510;-91
2022/06/10 21:29:49;;;;;;;8.03;7.15;;;;;;;;;;4514365;77;28505;-91
2022/06/10 21:35:52;;;;;;;10.75;7.60;;;;;;;;;;4523716;77;28532;-88
2022/06/10 21:48:30;;;;;;;8.98;7.62;;;;;;;;;;4523604;77;28544;-88
2022/06/10 21:54:31;;;;;;;9.78;7.58;;;;;;;;;;4536967;77;28531;-87
2022/06/10 22:00:36;;;;;;;9.38;7.25;;;;;;;;;;4566774;77;28476;-87
2022/06/10 22:06:40;;;;;;;9.60;7.72;;;;;;;;;;4543589;77;28542;-86
2022/06/10 22:12:42;;;;;;;10.30;8.35;;;;;;;;;;4555918;77;28502;-86
2022/06/10 22:18:44;;;;;;;9.45;7.60;;;;;;;;;;4519303;77;28529;-86
2022/06/10 22:24:50;;;;;;;8.43;7.40;;;;;;;;;;4517604;77;28495;-87
2022/06/10 22:30:55;;;;;;;11.13;7.67;;;;;;;;;;4487849;77;28519;-84
2022/06/10 22:36:57;;;;;;;9.58;7.95;;;;;;;;;;4483976;77;28575;-86
2022/06/10 22:42:58;;;;;;;9.95;7.35;;;;;;;;;;4504887;77;28503;-86
2022/06/10 22:49:01;;;;;;;11.15;6.75;;;;;;;;;;4496558;77;28472;-85
2022/06/10 22:55:07;;;;;;;10.90;6.87;;;;;;;;;;4490550;77;28534;-87
2022/06/10 23:01:10;;;;;;;9.63;7.37;;;;;;;;;;4518994;76;28503;-85
2022/06/10 23:07:11;;;;;;;8.48;7.20;;;;;;;;;;4507351;77;28583;-86
2022/06/10 23:13:16;;;;;;;13.70;8.20;;;;;;;;;;4485449;77;28473;-85
2022/06/10 23:19:23;;;;;;;9.78;7.47;;;;;;;;;;4483714;77;28550;-85
2022/06/10 23:25:28;;;;;;;9.50;6.75;;;;;;;;;;4558120;77;28515;-86
2022/06/10 23:31:37;;;;;;;13.22;7.70;;;;;;;;;;4572843;77;28596;-86
2022/06/10 23:37:36;;;;;;;10.05;6.70;;;;;;;;;;4523408;77;28479;-85
2022/06/10 23:43:39;;;;;;;11.40;7.67;;;;;;;;;;4531436;77;28514;-86
2022/06/10 23:56:14;;;;;;;10.25;7.33;;;;;;;;;;4485338;77;28553;-87
